Terminal Aerodrome Forecast
Issued by NWS Cleveland, OH

Home | Current Version | Previous Version | Text Only | Print | Product List | Glossary On
Versions: 1 2 3 4 5 6 7 8 9 10 11 12 13 14 15 16
000
FTUS41 KCLE 062342
TAFCAK
TAF
KCAK 062342Z 0700/0724 14007KT P6SM SCT060 OVC250
     FM071100 20007KT P6SM OVC250
     FM071600 23012KT P6SM OVC100
     FM072000 23012KT 4SM TSRA BR OVC025CB
     FM072300 23010KT 4SM -SHRA BR OVC015=

USA.gov is the U.S. government's official web portal to all federal, state and local government web resources and services.